sensor_id;sensor_type;location;lat;lon;timestamp;temperature;humidity
41256;DHT22;26989;45.524;10.938;2023-04-03T00:01:02;11.00;99.90
41256;DHT22;26989;45.524;10.938;2023-04-03T00:03:29;10.90;99.90
41256;DHT22;26989;45.524;10.938;2023-04-03T00:05:56;10.70;99.90
41256;DHT22;26989;45.524;10.938;2023-04-03T00:08:23;10.80;99.90
41256;DHT22;26989;45.524;10.938;2023-04-03T00:10:50;10.70;99.90
41256;DHT22;26989;45.524;10.938;2023-04-03T00:13:17;10.80;99.90
41256;DHT22;26989;45.524;10.938;2023-04-03T00:15:44;10.90;99.90
41256;DHT22;26989;45.524;10.938;2023-04-03T00:18:11;10.30;99.90
41256;DHT22;26989;45.524;10.938;2023-04-03T00:20:38;10.40;99.90
41256;DHT22;26989;45.524;10.938;2023-04-03T00:23:05;10.90;99.90
41256;DHT22;26989;45.524;10.938;2023-04-03T00:25:32;10.70;99.90
41256;DHT22;26989;45.524;10.938;2023-04-03T00:28:00;10.10;99.90
41256;DHT22;26989;45.524;10.938;2023-04-03T00:30:28;9.90;99.90
41256;DHT22;26989;45.524;10.938;2023-04-03T00:32:55;9.70;99.90
41256;DHT22;26989;45.524;10.938;2023-04-03T00:35:23;9.70;99.90
41256;DHT22;26989;45.524;10.938;2023-04-03T00:37:54;9.80;99.90
41256;DHT22;26989;45.524;10.938;2023-04-03T00:40:23;9.80;99.90
41256;DHT22;26989;45.524;10.938;2023-04-03T00:42:55;9.90;99.90
41256;DHT22;26989;45.524;10.938;2023-04-03T00:45:33;9.80;99.90
41256;DHT22;26989;45.524;10.938;2023-04-03T00:48:04;9.70;99.90
41256;DHT22;26989;45.524;10.938;2023-04-03T00:50:35;9.70;99.90
41256;DHT22;26989;45.524;10.938;2023-04-03T00:53:05;9.70;99.90
41256;DHT22;26989;45.524;10.938;2023-04-03T00:55:34;9.70;99.90
41256;DHT22;26989;45.524;10.938;2023-04-03T00:58:02;9.70;99.90
41256;DHT22;26989;45.524;10.938;2023-04-03T01:00:29;9.70;99.90
41256;DHT22;26989;45.524;10.938;2023-04-03T01:03:06;9.80;99.90
41256;DHT22;26989;45.524;10.938;2023-04-03T01:05:33;9.60;99.90
41256;DHT22;26989;45.524;10.938;2023-04-03T01:08:01;9.70;99.90
41256;DHT22;26989;45.524;10.938;2023-04-03T01:10:28;9.70;99.90
41256;DHT22;26989;45.524;10.938;2023-04-03T01:12:55;9.90;99.90
41256;DHT22;26989;45.524;10.938;2023-04-03T01:15:25;10.00;99.90
41256;DHT22;26989;45.524;10.938;2023-04-03T01:17:57;10.10;99.90
41256;DHT22;26989;45.524;10.938;2023-04-03T01:25:33;10.10;99.90
41256;DHT22;26989;45.524;10.938;2023-04-03T01:28:00;10.10;99.90
41256;DHT22;26989;45.524;10.938;2023-04-03T01:30:34;10.20;99.90
41256;DHT22;26989;45.524;10.938;2023-04-03T01:33:03;10.30;99.90
41256;DHT22;26989;45.524;10.938;2023-04-03T01:35:30;10.50;99.90
41256;DHT22;26989;45.524;10.938;2023-04-03T01:37:57;10.60;99.90
41256;DHT22;26989;45.524;10.938;2023-04-03T01:40:25;10.50;99.90
41256;DHT22;26989;45.524;10.938;2023-04-03T01:42:52;10.40;99.90
41256;DHT22;26989;45.524;10.938;2023-04-03T01:45:19;10.40;99.90
41256;DHT22;26989;45.524;10.938;2023-04-03T01:47:46;10.50;99.90
41256;DHT22;26989;45.524;10.938;2023-04-03T01:50:13;10.30;99.90
41256;DHT22;26989;45.524;10.938;2023-04-03T01:52:40;10.30;99.90
41256;DHT22;26989;45.524;10.938;2023-04-03T01:55:07;10.40;99.90
41256;DHT22;26989;45.524;10.938;2023-04-03T01:57:35;10.60;99.90
41256;DHT22;26989;45.524;10.938;2023-04-03T02:00:03;10.80;99.90
41256;DHT22;26989;45.524;10.938;2023-04-03T02:02:30;10.70;99.90
41256;DHT22;26989;45.524;10.938;2023-04-03T02:04:57;10.60;99.90
41256;DHT22;26989;45.524;10.938;2023-04-03T02:07:24;10.50;99.90
41256;DHT22;26989;45.524;10.938;2023-04-03T02:09:51;10.60;99.90
41256;DHT22;26989;45.524;10.938;2023-04-03T02:12:17;10.60;99.90
41256;DHT22;26989;45.524;10.938;2023-04-03T02:14:44;10.50;99.90
41256;DHT22;26989;45.524;10.938;2023-04-03T02:17:11;10.50;99.90
41256;DHT22;26989;45.524;10.938;2023-04-03T02:19:38;10.40;99.90
41256;DHT22;26989;45.524;10.938;2023-04-03T02:22:07;10.30;99.90
41256;DHT22;26989;45.524;10.938;2023-04-03T02:24:34;10.30;99.90
41256;DHT22;26989;45.524;10.938;2023-04-03T02:27:01;10.10;99.90
41256;DHT22;26989;45.524;10.938;2023-04-03T02:29:28;10.40;99.90
41256;DHT22;26989;45.524;10.938;2023-04-03T02:31:55;10.40;99.90
41256;DHT22;26989;45.524;10.938;2023-04-03T02:34:22;10.40;99.90
41256;DHT22;26989;45.524;10.938;2023-04-03T02:36:49;10.20;99.90
41256;DHT22;26989;45.524;10.938;2023-04-03T02:39:15;10.20;99.90
41256;DHT22;26989;45.524;10.938;2023-04-03T02:41:45;10.30;99.90
41256;DHT22;26989;45.524;10.938;2023-04-03T02:44:12;10.50;99.90
41256;DHT22;26989;45.524;10.938;2023-04-03T02:46:40;10.50;99.90
41256;DHT22;26989;45.524;10.938;2023-04-03T02:49:07;10.10;99.90
41256;DHT22;26989;45.524;10.938;2023-04-03T02:51:34;9.90;99.90
41256;DHT22;26989;45.524;10.938;2023-04-03T02:54:00;9.70;99.90
41256;DHT22;26989;45.524;10.938;2023-04-03T02:56:28;9.50;99.90
41256;DHT22;26989;45.524;10.938;2023-04-03T02:58:54;9.40;99.90
41256;DHT22;26989;45.524;10.938;2023-04-03T03:01:22;9.20;99.90
41256;DHT22;26989;45.524;10.938;2023-04-03T03:03:49;9.40;99.90
41256;DHT22;26989;45.524;10.938;2023-04-03T03:06:17;9.30;99.90
41256;DHT22;26989;45.524;10.938;2023-04-03T03:08:44;9.30;99.90
41256;DHT22;26989;45.524;10.938;2023-04-03T03:11:11;9.60;99.90
41256;DHT22;26989;45.524;10.938;2023-04-03T03:13:38;9.60;99.90
41256;DHT22;26989;45.524;10.938;2023-04-03T03:16:06;9.70;99.90
41256;DHT22;26989;45.524;10.938;2023-04-03T03:18:33;9.60;99.90
41256;DHT22;26989;45.524;10.938;2023-04-03T03:21:02;9.60;99.90
41256;DHT22;26989;45.524;10.938;2023-04-03T03:23:30;9.50;99.90
41256;DHT22;26989;45.524;10.938;2023-04-03T03:26:04;9.60;99.90
41256;DHT22;26989;45.524;10.938;2023-04-03T03:28:32;9.60;99.90
41256;DHT22;26989;45.524;10.938;2023-04-03T03:31:00;10.10;99.90
41256;DHT22;26989;45.524;10.938;2023-04-03T03:33:27;10.10;99.90
41256;DHT22;26989;45.524;10.938;2023-04-03T03:35:54;10.00;99.90
41256;DHT22;26989;45.524;10.938;2023-04-03T03:38:22;9.90;99.90
41256;DHT22;26989;45.524;10.938;2023-04-03T03:40:50;9.80;99.90
41256;DHT22;26989;45.524;10.938;2023-04-03T03:43:18;9.50;99.90
41256;DHT22;26989;45.524;10.938;2023-04-03T03:45:46;9.60;99.90
41256;DHT22;26989;45.524;10.938;2023-04-03T03:48:16;9.50;99.90
41256;DHT22;26989;45.524;10.938;2023-04-03T03:50:43;9.40;99.90
41256;DHT22;26989;45.524;10.938;2023-04-03T03:53:09;9.40;99.90
41256;DHT22;26989;45.524;10.938;2023-04-03T03:55:36;9.30;99.90
41256;DHT22;26989;45.524;10.938;2023-04-03T03:58:04;9.40;99.90
41256;DHT22;26989;45.524;10.938;2023-04-03T04:00:31;9.80;99.90
41256;DHT22;26989;45.524;10.938;2023-04-03T04:02:58;9.70;99.90
41256;DHT22;26989;45.524;10.938;2023-04-03T04:05:25;9.40;99.90
41256;DHT22;26989;45.524;10.938;2023-04-03T04:07:52;9.20;99.90
41256;DHT22;26989;45.524;10.938;2023-04-03T04:10:19;9.30;99.90
41256;DHT22;26989;45.524;10.938;2023-04-03T04:12:45;9.00;99.90
41256;DHT22;26989;45.524;10.938;2023-04-03T04:15:15;9.00;99.90
41256;DHT22;26989;45.524;10.938;2023-04-03T04:17:43;9.00;99.90
41256;DHT22;26989;45.524;10.938;2023-04-03T04:20:10;8.90;99.90
41256;DHT22;26989;45.524;10.938;2023-04-03T04:22:38;9.10;99.90
41256;DHT22;26989;45.524;10.938;2023-04-03T04:25:06;9.00;99.90
41256;DHT22;26989;45.524;10.938;2023-04-03T04:27:33;8.90;99.90
41256;DHT22;26989;45.524;10.938;2023-04-03T04:29:59;8.80;99.90
41256;DHT22;26989;45.524;10.938;2023-04-03T04:32:28;8.70;99.90
41256;DHT22;26989;45.524;10.938;2023-04-03T04:34:55;8.60;99.90
41256;DHT22;26989;45.524;10.938;2023-04-03T04:37:23;9.00;99.90
41256;DHT22;26989;45.524;10.938;2023-04-03T04:39:50;9.10;99.90
41256;DHT22;26989;45.524;10.938;2023-04-03T04:42:16;9.30;99.90
41256;DHT22;26989;45.524;10.938;2023-04-03T04:44:44;9.10;99.90
41256;DHT22;26989;45.524;10.938;2023-04-03T04:47:10;9.00;99.90
41256;DHT22;26989;45.524;10.938;2023-04-03T04:49:37;9.30;99.90
41256;DHT22;26989;45.524;10.938;2023-04-03T04:52:04;9.30;99.90
41256;DHT22;26989;45.524;10.938;2023-04-03T04:54:31;9.10;99.90
41256;DHT22;26989;45.524;10.938;2023-04-03T04:56:58;9.00;99.90
41256;DHT22;26989;45.524;10.938;2023-04-03T04:59:27;9.10;99.90
41256;DHT22;26989;45.524;10.938;2023-04-03T05:01:54;9.30;99.90
41256;DHT22;26989;45.524;10.938;2023-04-03T05:04:24;10.10;99.90
41256;DHT22;26989;45.524;10.938;2023-04-03T05:06:51;10.60;99.90
41256;DHT22;26989;45.524;10.938;2023-04-03T05:09:18;10.40;99.90
41256;DHT22;26989;45.524;10.938;2023-04-03T05:11:46;10.90;99.90
41256;DHT22;26989;45.524;10.938;2023-04-03T05:14:13;10.70;99.90
41256;DHT22;26989;45.524;10.938;2023-04-03T05:16:40;10.70;99.90
41256;DHT22;26989;45.524;10.938;2023-04-03T05:19:07;11.00;99.90
41256;DHT22;26989;45.524;10.938;2023-04-03T05:21:34;11.00;99.90
41256;DHT22;26989;45.524;10.938;2023-04-03T05:24:04;10.80;99.90
41256;DHT22;26989;45.524;10.938;2023-04-03T05:26:31;10.80;99.90
41256;DHT22;26989;45.524;10.938;2023-04-03T05:28:58;10.60;99.90
41256;DHT22;26989;45.524;10.938;2023-04-03T05:31:25;10.60;99.90
41256;DHT22;26989;45.524;10.938;2023-04-03T05:33:56;10.50;99.90
41256;DHT22;26989;45.524;10.938;2023-04-03T05:36:23;10.60;99.90
41256;DHT22;26989;45.524;10.938;2023-04-03T05:38:50;10.70;99.90
41256;DHT22;26989;45.524;10.938;2023-04-03T05:41:18;10.60;99.90
41256;DHT22;26989;45.524;10.938;2023-04-03T05:43:46;10.50;99.90
41256;DHT22;26989;45.524;10.938;2023-04-03T05:46:15;10.40;99.90
41256;DHT22;26989;45.524;10.938;2023-04-03T05:48:43;11.90;99.90
41256;DHT22;26989;45.524;10.938;2023-04-03T05:51:33;15.40;99.90
41256;DHT22;26989;45.524;10.938;2023-04-03T05:54:18;16.90;99.10
41256;DHT22;26989;45.524;10.938;2023-04-03T05:56:50;17.30;98.70
41256;DHT22;26989;45.524;10.938;2023-04-03T05:59:19;18.20;97.60
41256;DHT22;26989;45.524;10.938;2023-04-03T06:01:46;20.40;95.80
41256;DHT22;26989;45.524;10.938;2023-04-03T06:04:13;21.10;94.10
41256;DHT22;26989;45.524;10.938;2023-04-03T06:06:52;19.30;95.00
41256;DHT22;26989;45.524;10.938;2023-04-03T06:09:21;19.10;95.70
41256;DHT22;26989;45.524;10.938;2023-04-03T06:11:49;19.20;95.10
41256;DHT22;26989;45.524;10.938;2023-04-03T06:14:16;18.00;95.70
41256;DHT22;26989;45.524;10.938;2023-04-03T06:16:43;18.70;95.30
41256;DHT22;26989;45.524;10.938;2023-04-03T06:19:11;18.40;96.70
41256;DHT22;26989;45.524;10.938;2023-04-03T06:21:42;18.50;96.30
41256;DHT22;26989;45.524;10.938;2023-04-03T06:24:14;19.60;95.40
41256;DHT22;26989;45.524;10.938;2023-04-03T06:26:42;19.50;95.50
41256;DHT22;26989;45.524;10.938;2023-04-03T06:29:15;21.30;94.60
41256;DHT22;26989;45.524;10.938;2023-04-03T06:31:42;22.80;93.60
41256;DHT22;26989;45.524;10.938;2023-04-03T06:34:09;23.70;92.30
41256;DHT22;26989;45.524;10.938;2023-04-03T06:36:41;24.40;91.40
41256;DHT22;26989;45.524;10.938;2023-04-03T06:39:13;25.10;90.70
41256;DHT22;26989;45.524;10.938;2023-04-03T06:41:40;22.70;90.60
41256;DHT22;26989;45.524;10.938;2023-04-03T06:44:07;19.70;93.10
41256;DHT22;26989;45.524;10.938;2023-04-03T06:46:38;17.50;95.40
41256;DHT22;26989;45.524;10.938;2023-04-03T06:49:05;16.40;96.80
41256;DHT22;26989;45.524;10.938;2023-04-03T06:51:36;15.70;97.70
41256;DHT22;26989;45.524;10.938;2023-04-03T06:54:04;15.00;98.90
41256;DHT22;26989;45.524;10.938;2023-04-03T06:56:32;14.40;99.50
41256;DHT22;26989;45.524;10.938;2023-04-03T06:58:59;14.10;99.70
41256;DHT22;26989;45.524;10.938;2023-04-03T07:01:28;14.00;99.90
41256;DHT22;26989;45.524;10.938;2023-04-03T07:03:57;13.90;99.90
41256;DHT22;26989;45.524;10.938;2023-04-03T07:06:24;13.80;99.90
41256;DHT22;26989;45.524;10.938;2023-04-03T07:08:54;13.80;99.90
41256;DHT22;26989;45.524;10.938;2023-04-03T07:11:21;13.90;99.90
41256;DHT22;26989;45.524;10.938;2023-04-03T07:13:49;13.80;99.90
41256;DHT22;26989;45.524;10.938;2023-04-03T07:16:16;13.80;99.90
41256;DHT22;26989;45.524;10.938;2023-04-03T07:18:43;13.80;99.90
41256;DHT22;26989;45.524;10.938;2023-04-03T07:21:11;13.70;99.90
41256;DHT22;26989;45.524;10.938;2023-04-03T07:23:39;13.70;99.90
41256;DHT22;26989;45.524;10.938;2023-04-03T07:26:07;13.60;99.90
41256;DHT22;26989;45.524;10.938;2023-04-03T07:28:35;13.60;99.90
41256;DHT22;26989;45.524;10.938;2023-04-03T07:31:06;13.60;99.90
41256;DHT22;26989;45.524;10.938;2023-04-03T07:33:35;13.50;99.90
41256;DHT22;26989;45.524;10.938;2023-04-03T07:36:04;13.40;99.90
41256;DHT22;26989;45.524;10.938;2023-04-03T07:38:34;13.50;99.90
41256;DHT22;26989;45.524;10.938;2023-04-03T07:41:03;13.40;99.90
41256;DHT22;26989;45.524;10.938;2023-04-03T07:43:31;13.60;99.90
41256;DHT22;26989;45.524;10.938;2023-04-03T07:45:58;13.60;99.90
41256;DHT22;26989;45.524;10.938;2023-04-03T07:48:25;13.40;99.90
41256;DHT22;26989;45.524;10.938;2023-04-03T07:50:52;13.40;99.90
41256;DHT22;26989;45.524;10.938;2023-04-03T07:53:22;13.40;99.90
41256;DHT22;26989;45.524;10.938;2023-04-03T07:55:49;13.50;99.90
41256;DHT22;26989;45.524;10.938;2023-04-03T07:58:18;13.40;99.90
41256;DHT22;26989;45.524;10.938;2023-04-03T08:00:46;13.40;99.90
41256;DHT22;26989;45.524;10.938;2023-04-03T08:03:14;13.50;99.90
41256;DHT22;26989;45.524;10.938;2023-04-03T08:05:45;13.50;99.90
41256;DHT22;26989;45.524;10.938;2023-04-03T08:08:15;13.70;99.90
41256;DHT22;26989;45.524;10.938;2023-04-03T08:10:52;13.70;99.90
41256;DHT22;26989;45.524;10.938;2023-04-03T08:13:20;13.70;99.90
41256;DHT22;26989;45.524;10.938;2023-04-03T08:15:49;13.70;99.90
41256;DHT22;26989;45.524;10.938;2023-04-03T08:18:16;13.60;99.90
41256;DHT22;26989;45.524;10.938;2023-04-03T08:20:44;13.80;99.90
41256;DHT22;26989;45.524;10.938;2023-04-03T08:23:12;13.80;99.90
41256;DHT22;26989;45.524;10.938;2023-04-03T08:25:40;13.80;99.90
41256;DHT22;26989;45.524;10.938;2023-04-03T08:28:09;13.80;99.90
41256;DHT22;26989;45.524;10.938;2023-04-03T08:30:38;13.80;99.90
41256;DHT22;26989;45.524;10.938;2023-04-03T08:33:05;14.00;99.90
41256;DHT22;26989;45.524;10.938;2023-04-03T08:35:32;14.10;99.90
41256;DHT22;26989;45.524;10.938;2023-04-03T08:38:01;14.10;99.90
41256;DHT22;26989;45.524;10.938;2023-04-03T08:40:29;14.10;99.90
41256;DHT22;26989;45.524;10.938;2023-04-03T08:45:59;14.30;99.90
41256;DHT22;26989;45.524;10.938;2023-04-03T08:48:47;14.30;99.90
41256;DHT22;26989;45.524;10.938;2023-04-03T08:51:19;14.50;99.90
41256;DHT22;26989;45.524;10.938;2023-04-03T08:53:58;14.50;99.90
41256;DHT22;26989;45.524;10.938;2023-04-03T08:56:27;14.40;99.90
41256;DHT22;26989;45.524;10.938;2023-04-03T08:58:58;14.20;99.90
41256;DHT22;26989;45.524;10.938;2023-04-03T09:01:30;14.50;99.90
41256;DHT22;26989;45.524;10.938;2023-04-03T09:04:01;14.90;99.90
41256;DHT22;26989;45.524;10.938;2023-04-03T09:06:31;15.00;99.90
41256;DHT22;26989;45.524;10.938;2023-04-03T09:11:58;15.30;99.90
41256;DHT22;26989;45.524;10.938;2023-04-03T09:16:59;14.90;99.90
41256;DHT22;26989;45.524;10.938;2023-04-03T09:19:52;15.50;99.90
41256;DHT22;26989;45.524;10.938;2023-04-03T09:22:24;15.70;99.90
41256;DHT22;26989;45.524;10.938;2023-04-03T09:25:17;16.10;99.90
41256;DHT22;26989;45.524;10.938;2023-04-03T09:27:45;16.40;99.70
41256;DHT22;26989;45.524;10.938;2023-04-03T09:30:19;16.60;99.30
41256;DHT22;26989;45.524;10.938;2023-04-03T09:32:49;16.50;99.10
41256;DHT22;26989;45.524;10.938;2023-04-03T09:35:21;16.80;98.80
41256;DHT22;26989;45.524;10.938;2023-04-03T09:40:43;15.40;99.90
41256;DHT22;26989;45.524;10.938;2023-04-03T09:45:45;16.50;99.10
41256;DHT22;26989;45.524;10.938;2023-04-03T09:56:18;15.80;99.30
41256;DHT22;26989;45.524;10.938;2023-04-03T10:01:36;15.70;99.70
41256;DHT22;26989;45.524;10.938;2023-04-03T10:04:09;15.60;99.20
41256;DHT22;26989;45.524;10.938;2023-04-03T10:06:45;15.70;99.00
41256;DHT22;26989;45.524;10.938;2023-04-03T10:09:22;15.80;99.30
41256;DHT22;26989;45.524;10.938;2023-04-03T10:12:07;15.90;99.00
41256;DHT22;26989;45.524;10.938;2023-04-03T10:14:39;15.90;98.90
41256;DHT22;26989;45.524;10.938;2023-04-03T10:17:26;15.80;99.10
41256;DHT22;26989;45.524;10.938;2023-04-03T10:28:38;15.80;98.40
41256;DHT22;26989;45.524;10.938;2023-04-03T10:31:22;15.80;98.00
41256;DHT22;26989;45.524;10.938;2023-04-03T10:36:46;16.30;97.60
41256;DHT22;26989;45.524;10.938;2023-04-03T10:47:40;15.70;98.20
41256;DHT22;26989;45.524;10.938;2023-04-03T10:58:06;16.40;96.60
41256;DHT22;26989;45.524;10.938;2023-04-03T11:00:45;15.90;96.80
41256;DHT22;26989;45.524;10.938;2023-04-03T11:03:34;15.70;97.30
41256;DHT22;26989;45.524;10.938;2023-04-03T11:06:05;15.10;97.90
41256;DHT22;26989;45.524;10.938;2023-04-03T11:08:46;15.60;97.80
41256;DHT22;26989;45.524;10.938;2023-04-03T11:11:41;15.50;97.20
41256;DHT22;26989;45.524;10.938;2023-04-03T11:16:48;15.50;97.20
41256;DHT22;26989;45.524;10.938;2023-04-03T11:19:22;15.30;97.50
41256;DHT22;26989;45.524;10.938;2023-04-03T11:21:54;15.40;97.00
41256;DHT22;26989;45.524;10.938;2023-04-03T11:24:27;15.30;97.20
41256;DHT22;26989;45.524;10.938;2023-04-03T11:26:58;15.70;97.30
41256;DHT22;26989;45.524;10.938;2023-04-03T11:29:34;15.80;96.90
41256;DHT22;26989;45.524;10.938;2023-04-03T11:35:01;16.10;96.70
41256;DHT22;26989;45.524;10.938;2023-04-03T11:40:26;15.50;97.00
41256;DHT22;26989;45.524;10.938;2023-04-03T11:43:07;15.70;96.70
41256;DHT22;26989;45.524;10.938;2023-04-03T11:50:50;15.70;96.60
41256;DHT22;26989;45.524;10.938;2023-04-03T11:53:33;15.90;96.50
41256;DHT22;26989;45.524;10.938;2023-04-03T11:56:03;16.00;96.60
41256;DHT22;26989;45.524;10.938;2023-04-03T11:58:35;15.90;96.50
41256;DHT22;26989;45.524;10.938;2023-04-03T12:04:27;16.10;96.40
41256;DHT22;26989;45.524;10.938;2023-04-03T12:07:20;16.30;96.00
41256;DHT22;26989;45.524;10.938;2023-04-03T12:12:35;16.20;96.00
41256;DHT22;26989;45.524;10.938;2023-04-03T12:15:44;16.20;96.50
41256;DHT22;26989;45.524;10.938;2023-04-03T12:21:10;15.80;95.90
41256;DHT22;26989;45.524;10.938;2023-04-03T12:29:43;15.60;96.20
41256;DHT22;26989;45.524;10.938;2023-04-03T12:35:10;15.70;96.30
41256;DHT22;26989;45.524;10.938;2023-04-03T12:46:33;15.60;96.40
41256;DHT22;26989;45.524;10.938;2023-04-03T12:49:04;15.30;96.50
41256;DHT22;26989;45.524;10.938;2023-04-03T12:51:42;15.50;96.20
41256;DHT22;26989;45.524;10.938;2023-04-03T12:54:16;15.70;96.20
41256;DHT22;26989;45.524;10.938;2023-04-03T12:56:45;15.90;96.70
41256;DHT22;26989;45.524;10.938;2023-04-03T12:59:23;15.80;96.20
41256;DHT22;26989;45.524;10.938;2023-04-03T13:01:58;15.80;96.50
41256;DHT22;26989;45.524;10.938;2023-04-03T13:04:27;15.80;96.00
41256;DHT22;26989;45.524;10.938;2023-04-03T13:06:55;15.60;96.20
41256;DHT22;26989;45.524;10.938;2023-04-03T13:09:30;15.60;96.30
41256;DHT22;26989;45.524;10.938;2023-04-03T13:12:13;14.90;96.90
41256;DHT22;26989;45.524;10.938;2023-04-03T13:14:55;15.20;96.80
41256;DHT22;26989;45.524;10.938;2023-04-03T13:17:24;15.20;96.20
41256;DHT22;26989;45.524;10.938;2023-04-03T13:19:51;15.40;96.30
41256;DHT22;26989;45.524;10.938;2023-04-03T13:24:51;15.40;96.10
41256;DHT22;26989;45.524;10.938;2023-04-03T13:27:18;14.30;97.40
41256;DHT22;26989;45.524;10.938;2023-04-03T13:29:51;14.10;98.10
41256;DHT22;26989;45.524;10.938;2023-04-03T13:32:23;14.40;97.10
41256;DHT22;26989;45.524;10.938;2023-04-03T13:34:51;14.70;97.00
41256;DHT22;26989;45.524;10.938;2023-04-03T13:37:25;14.90;96.80
41256;DHT22;26989;45.524;10.938;2023-04-03T13:42:29;14.20;97.40
41256;DHT22;26989;45.524;10.938;2023-04-03T13:47:52;14.50;97.30
41256;DHT22;26989;45.524;10.938;2023-04-03T13:50:24;14.50;97.20
41256;DHT22;26989;45.524;10.938;2023-04-03T13:53:01;14.90;96.80
41256;DHT22;26989;45.524;10.938;2023-04-03T13:55:35;14.70;96.60
41256;DHT22;26989;45.524;10.938;2023-04-03T14:03:25;14.20;97.00
41256;DHT22;26989;45.524;10.938;2023-04-03T14:05:53;14.10;97.60
41256;DHT22;26989;45.524;10.938;2023-04-03T14:08:21;14.30;97.20
41256;DHT22;26989;45.524;10.938;2023-04-03T14:11:02;14.50;97.00
41256;DHT22;26989;45.524;10.938;2023-04-03T14:13:30;14.60;96.80
41256;DHT22;26989;45.524;10.938;2023-04-03T14:15:58;14.00;97.20
41256;DHT22;26989;45.524;10.938;2023-04-03T14:18:40;14.20;97.20
41256;DHT22;26989;45.524;10.938;2023-04-03T14:21:11;14.30;97.00
41256;DHT22;26989;45.524;10.938;2023-04-03T14:23:39;14.50;96.90
41256;DHT22;26989;45.524;10.938;2023-04-03T14:26:25;14.50;97.20
41256;DHT22;26989;45.524;10.938;2023-04-03T14:28:54;14.20;97.30
41256;DHT22;26989;45.524;10.938;2023-04-03T14:31:23;14.30;97.20
41256;DHT22;26989;45.524;10.938;2023-04-03T14:33:50;13.80;97.40
41256;DHT22;26989;45.524;10.938;2023-04-03T14:36:21;13.70;97.50
41256;DHT22;26989;45.524;10.938;2023-04-03T14:38:49;14.00;97.50
41256;DHT22;26989;45.524;10.938;2023-04-03T14:41:19;14.10;97.50
41256;DHT22;26989;45.524;10.938;2023-04-03T14:43:47;14.00;97.20
41256;DHT22;26989;45.524;10.938;2023-04-03T14:46:17;14.10;97.10
41256;DHT22;26989;45.524;10.938;2023-04-03T14:48:44;14.30;97.10
41256;DHT22;26989;45.524;10.938;2023-04-03T14:51:13;14.40;97.50
41256;DHT22;26989;45.524;10.938;2023-04-03T14:53:45;14.30;97.10
41256;DHT22;26989;45.524;10.938;2023-04-03T14:56:25;14.30;97.40
41256;DHT22;26989;45.524;10.938;2023-04-03T14:58:58;14.20;97.20
41256;DHT22;26989;45.524;10.938;2023-04-03T15:01:30;14.10;97.70
41256;DHT22;26989;45.524;10.938;2023-04-03T15:03:56;14.00;98.10
41256;DHT22;26989;45.524;10.938;2023-04-03T15:06:24;13.80;97.90
41256;DHT22;26989;45.524;10.938;2023-04-03T15:08:52;13.80;97.80
41256;DHT22;26989;45.524;10.938;2023-04-03T15:11:19;14.00;97.70
41256;DHT22;26989;45.524;10.938;2023-04-03T15:13:46;13.90;97.90
41256;DHT22;26989;45.524;10.938;2023-04-03T15:16:17;14.00;97.30
41256;DHT22;26989;45.524;10.938;2023-04-03T15:18:45;13.90;97.20
41256;DHT22;26989;45.524;10.938;2023-04-03T15:21:13;13.40;97.80
41256;DHT22;26989;45.524;10.938;2023-04-03T15:23:40;13.30;98.30
41256;DHT22;26989;45.524;10.938;2023-04-03T15:26:08;13.50;98.00
41256;DHT22;26989;45.524;10.938;2023-04-03T15:28:43;13.60;97.80
41256;DHT22;26989;45.524;10.938;2023-04-03T15:31:11;13.70;97.60
41256;DHT22;26989;45.524;10.938;2023-04-03T15:33:39;13.70;97.40
41256;DHT22;26989;45.524;10.938;2023-04-03T15:36:07;13.70;97.60
41256;DHT22;26989;45.524;10.938;2023-04-03T15:38:54;13.80;97.60
41256;DHT22;26989;45.524;10.938;2023-04-03T15:41:21;13.80;97.50
41256;DHT22;26989;45.524;10.938;2023-04-03T15:43:48;13.80;97.40
41256;DHT22;26989;45.524;10.938;2023-04-03T15:46:15;13.80;97.60
41256;DHT22;26989;45.524;10.938;2023-04-03T15:48:42;13.80;97.50
41256;DHT22;26989;45.524;10.938;2023-04-03T15:51:10;13.70;97.70
41256;DHT22;26989;45.524;10.938;2023-04-03T15:53:37;13.50;98.10
41256;DHT22;26989;45.524;10.938;2023-04-03T15:56:04;13.60;98.20
41256;DHT22;26989;45.524;10.938;2023-04-03T15:58:31;13.60;98.00
41256;DHT22;26989;45.524;10.938;2023-04-03T16:00:58;13.40;98.10
41256;DHT22;26989;45.524;10.938;2023-04-03T16:03:26;13.30;98.30
41256;DHT22;26989;45.524;10.938;2023-04-03T16:05:55;13.50;98.20
41256;DHT22;26989;45.524;10.938;2023-04-03T16:08:23;13.20;98.30
41256;DHT22;26989;45.524;10.938;2023-04-03T16:10:56;13.20;98.20
41256;DHT22;26989;45.524;10.938;2023-04-03T16:13:26;13.20;98.40
41256;DHT22;26989;45.524;10.938;2023-04-03T16:15:52;13.20;98.20
41256;DHT22;26989;45.524;10.938;2023-04-03T16:18:20;13.20;98.60
41256;DHT22;26989;45.524;10.938;2023-04-03T16:20:47;13.40;98.40
41256;DHT22;26989;45.524;10.938;2023-04-03T16:23:14;13.40;97.80
41256;DHT22;26989;45.524;10.938;2023-04-03T16:25:41;13.40;97.20
41256;DHT22;26989;45.524;10.938;2023-04-03T16:28:15;13.40;97.00
41256;DHT22;26989;45.524;10.938;2023-04-03T16:30:45;13.60;96.80
41256;DHT22;26989;45.524;10.938;2023-04-03T16:33:13;13.40;97.30
41256;DHT22;26989;45.524;10.938;2023-04-03T16:35:40;13.30;97.10
41256;DHT22;26989;45.524;10.938;2023-04-03T16:38:08;13.30;97.40
41256;DHT22;26989;45.524;10.938;2023-04-03T16:40:35;13.20;97.30
41256;DHT22;26989;45.524;10.938;2023-04-03T16:43:03;13.30;97.30
41256;DHT22;26989;45.524;10.938;2023-04-03T16:45:30;13.10;97.80
41256;DHT22;26989;45.524;10.938;2023-04-03T16:48:01;13.10;97.80
41256;DHT22;26989;45.524;10.938;2023-04-03T16:50:31;13.10;97.20
41256;DHT22;26989;45.524;10.938;2023-04-03T16:52:58;12.90;97.30
41256;DHT22;26989;45.524;10.938;2023-04-03T16:55:26;13.00;97.10
41256;DHT22;26989;45.524;10.938;2023-04-03T16:57:52;13.00;97.10
41256;DHT22;26989;45.524;10.938;2023-04-03T17:00:21;13.00;97.00
41256;DHT22;26989;45.524;10.938;2023-04-03T17:02:52;12.90;96.20
41256;DHT22;26989;45.524;10.938;2023-04-03T17:05:22;12.80;95.90
41256;DHT22;26989;45.524;10.938;2023-04-03T17:07:50;12.70;95.90
41256;DHT22;26989;45.524;10.938;2023-04-03T17:10:19;12.60;95.40
41256;DHT22;26989;45.524;10.938;2023-04-03T17:12:46;12.60;95.50
41256;DHT22;26989;45.524;10.938;2023-04-03T17:15:13;12.40;95.70
41256;DHT22;26989;45.524;10.938;2023-04-03T17:17:41;12.30;95.90
41256;DHT22;26989;45.524;10.938;2023-04-03T17:20:09;12.30;95.80
41256;DHT22;26989;45.524;10.938;2023-04-03T17:22:36;12.40;96.00
41256;DHT22;26989;45.524;10.938;2023-04-03T17:25:04;12.30;95.80